createdAt,value
2022-12-18T00:00:47.960Z,-3.20
2022-12-18T00:03:34.826Z,-3.30
2022-12-18T00:06:21.994Z,-3.20
2022-12-18T00:09:07.515Z,-3.20
2022-12-18T00:11:52.937Z,-3.30
2022-12-18T00:14:38.434Z,-3.30
2022-12-18T00:17:29.832Z,-3.30
2022-12-18T00:20:15.548Z,-3.40
2022-12-18T00:23:01.538Z,-3.50
2022-12-18T00:25:47.029Z,-3.50
2022-12-18T00:28:33.135Z,-3.50
2022-12-18T00:31:22.365Z,-3.60
2022-12-18T00:34:10.382Z,-3.60
2022-12-18T00:36:58.504Z,-3.60
2022-12-18T00:39:44.087Z,-3.60
2022-12-18T00:42:48.101Z,-3.70
2022-12-18T00:45:33.714Z,-3.60
2022-12-18T00:48:19.524Z,-3.70
2022-12-18T00:51:05.170Z,-3.80
2022-12-18T00:53:51.040Z,-3.70
2022-12-18T00:56:48.066Z,-3.60
2022-12-18T00:59:34.709Z,-3.60
2022-12-18T01:02:20.492Z,-3.70
2022-12-18T01:05:06.355Z,-4.30
2022-12-18T01:07:52.139Z,-3.70
2022-12-18T01:10:41.722Z,-3.80
2022-12-18T01:13:28.489Z,-3.80
2022-12-18T01:16:16.299Z,-3.40
2022-12-18T01:19:02.279Z,-3.90
2022-12-18T01:21:47.914Z,-3.90
2022-12-18T01:24:33.604Z,-3.90
2022-12-18T01:27:19.058Z,-3.90
2022-12-18T01:30:05.814Z,-3.80
2022-12-18T01:32:51.726Z,-3.90
2022-12-18T01:35:43.076Z,-3.90
2022-12-18T01:38:29.923Z,-4.00
2022-12-18T01:41:17.923Z,-3.80
2022-12-18T01:44:42.434Z,-3.90
2022-12-18T01:47:48.301Z,-3.90
2022-12-18T01:50:38.472Z,-3.90
2022-12-18T01:53:25.102Z,-4.00
2022-12-18T01:56:15.600Z,-3.90
2022-12-18T01:59:07.093Z,-4.00
2022-12-18T02:01:52.679Z,-4.00
2022-12-18T02:04:38.751Z,-4.00
2022-12-18T02:07:52.307Z,-4.00
2022-12-18T02:10:53.622Z,-4.00
2022-12-18T02:13:43.454Z,-4.10
2022-12-18T02:16:52.139Z,-4.00
2022-12-18T02:19:37.933Z,-4.10
2022-12-18T02:22:54.797Z,-3.90
2022-12-18T02:26:02.184Z,-4.10
2022-12-18T02:28:59.990Z,-4.10
2022-12-18T02:31:53.073Z,-4.00
2022-12-18T02:34:40.842Z,-4.10
2022-12-18T02:37:33.341Z,-4.10
2022-12-18T02:40:22.855Z,-4.10
2022-12-18T02:43:14.899Z,-4.10
2022-12-18T02:46:02.597Z,-4.10
2022-12-18T02:48:52.540Z,-4.10
2022-12-18T02:51:43.623Z,-4.10
2022-12-18T02:54:32.182Z,-4.20
2022-12-18T02:57:24.453Z,-4.20
2022-12-18T03:00:17.085Z,-4.10
2022-12-18T03:03:24.143Z,-4.10
2022-12-18T03:06:29.052Z,-4.10
2022-12-18T03:09:32.686Z,-4.20
2022-12-18T03:12:28.530Z,-4.20
2022-12-18T03:15:45.073Z,-4.40
2022-12-18T03:18:46.856Z,-4.20
2022-12-18T03:21:46.097Z,-4.20
2022-12-18T03:24:35.820Z,-4.20
2022-12-18T03:27:25.272Z,-4.00
2022-12-18T03:30:14.897Z,-4.00
2022-12-18T03:33:12.084Z,-4.00
2022-12-18T03:36:02.757Z,-4.10
2022-12-18T03:38:48.567Z,-4.00
2022-12-18T03:41:44.041Z,-4.00
2022-12-18T03:45:25.671Z,-4.10
2022-12-18T03:48:38.868Z,-4.10
2022-12-18T03:51:49.577Z,-4.10
2022-12-18T03:54:37.360Z,-4.10
2022-12-18T03:57:32.572Z,-4.10
2022-12-18T04:00:19.491Z,-4.10
2022-12-18T04:03:15.766Z,-4.10
2022-12-18T04:06:07.214Z,-4.20
2022-12-18T04:08:53.261Z,-4.20
2022-12-18T04:11:44.732Z,-4.20
2022-12-18T04:14:36.495Z,-4.20
2022-12-18T04:17:23.930Z,-4.30
2022-12-18T04:20:10.191Z,-4.30
2022-12-18T04:22:59.132Z,-4.30
2022-12-18T04:25:44.684Z,-4.20
2022-12-18T04:28:35.662Z,-4.30
2022-12-18T04:31:22.613Z,-4.40
2022-12-18T04:34:09.098Z,-4.40
2022-12-18T04:37:00.469Z,-4.50
2022-12-18T04:39:46.610Z,-4.50
2022-12-18T04:42:41.427Z,-4.20
2022-12-18T04:45:27.136Z,-4.60
2022-12-18T04:48:12.746Z,-4.50
2022-12-18T04:50:58.458Z,-4.50
2022-12-18T04:53:46.724Z,-4.50
2022-12-18T04:56:33.108Z,-4.60
2022-12-18T04:59:18.935Z,-4.70
2022-12-18T05:02:04.460Z,-4.80
2022-12-18T05:04:51.024Z,-4.70
2022-12-18T05:07:36.544Z,-4.80
2022-12-18T05:10:22.273Z,-4.80
2022-12-18T05:13:07.605Z,-4.80
2022-12-18T05:15:54.090Z,-4.90
2022-12-18T05:18:39.779Z,-4.90
2022-12-18T05:21:25.588Z,-4.80
2022-12-18T05:24:11.400Z,-4.90
2022-12-18T05:26:57.183Z,-4.90
2022-12-18T05:29:42.578Z,-4.80
2022-12-18T05:32:28.050Z,-5.10
2022-12-18T05:35:13.537Z,-5.20
2022-12-18T05:37:59.275Z,-5.20
2022-12-18T05:40:45.251Z,-5.30
2022-12-18T05:43:31.131Z,-5.40
2022-12-18T05:46:21.177Z,-5.40
2022-12-18T05:49:06.927Z,-5.30
2022-12-18T05:51:52.526Z,-5.40
2022-12-18T05:54:37.989Z,-5.50
2022-12-18T05:57:24.098Z,-5.50
2022-12-18T06:00:10.665Z,-5.60
2022-12-18T06:02:57.576Z,-5.60
2022-12-18T06:05:45.930Z,-5.70
2022-12-18T06:08:31.575Z,-5.70
2022-12-18T06:11:20.028Z,-5.80
2022-12-18T06:14:06.881Z,-5.90
2022-12-18T06:16:53.290Z,-5.90
2022-12-18T06:19:38.920Z,-5.90
2022-12-18T06:22:24.915Z,-5.90
2022-12-18T06:25:10.718Z,-5.80
2022-12-18T06:27:56.269Z,-5.90
2022-12-18T06:30:45.223Z,-5.80
2022-12-18T06:33:30.879Z,-4.60
2022-12-18T06:36:17.598Z,-5.90
2022-12-18T06:39:03.875Z,-6.00
2022-12-18T06:41:49.489Z,-6.00
2022-12-18T06:44:35.058Z,-5.90
2022-12-18T06:47:20.706Z,-6.00
2022-12-18T06:50:07.060Z,-6.00
2022-12-18T06:52:52.859Z,-6.00
2022-12-18T06:55:38.208Z,-5.90
2022-12-18T06:58:24.322Z,-5.90
2022-12-18T07:01:12.008Z,-5.90
2022-12-18T07:03:58.567Z,-5.90
2022-12-18T07:06:44.130Z,-5.90
2022-12-18T07:09:29.668Z,-5.90
2022-12-18T07:12:15.205Z,-5.90
2022-12-18T07:15:00.645Z,-5.90
2022-12-18T07:17:46.092Z,-5.90
2022-12-18T07:20:31.922Z,-5.80
2022-12-18T07:23:17.568Z,-5.80
2022-12-18T07:26:08.550Z,-5.90
2022-12-18T07:28:58.398Z,-6.00
2022-12-18T07:31:44.537Z,-5.60
2022-12-18T07:34:30.214Z,-6.00
2022-12-18T07:37:15.979Z,-6.00
2022-12-18T07:40:01.951Z,-5.10
2022-12-18T07:42:47.697Z,-6.00
2022-12-18T07:45:33.523Z,-5.90
2022-12-18T07:48:19.110Z,-5.80
2022-12-18T07:51:06.694Z,-5.80
2022-12-18T07:53:52.785Z,-5.90
2022-12-18T07:56:38.622Z,-5.90
2022-12-18T07:59:24.116Z,-5.90
2022-12-18T08:02:09.801Z,-5.90
2022-12-18T08:04:55.588Z,-5.90
2022-12-18T08:07:41.164Z,-5.90
2022-12-18T08:10:26.876Z,-5.90
2022-12-18T08:13:12.473Z,-5.90
2022-12-18T08:16:06.989Z,-5.40
2022-12-18T08:18:54.256Z,-5.90
2022-12-18T08:21:43.279Z,-5.90
2022-12-18T08:24:29.109Z,-5.80
2022-12-18T08:27:29.245Z,-5.80
2022-12-18T08:30:15.597Z,-5.80
2022-12-18T08:33:01.061Z,-5.70
2022-12-18T08:35:46.547Z,-5.60
2022-12-18T08:38:33.475Z,-5.60
2022-12-18T08:41:20.284Z,-5.50
2022-12-18T08:44:29.052Z,-5.50
2022-12-18T08:47:14.812Z,-5.40
2022-12-18T08:50:00.413Z,-5.30
2022-12-18T08:52:45.921Z,-5.30
2022-12-18T08:55:32.527Z,-5.30
2022-12-18T08:58:18.117Z,-5.40
2022-12-18T09:01:10.084Z,-5.50
2022-12-18T09:03:55.635Z,-5.50
2022-12-18T09:06:41.562Z,-5.40
2022-12-18T09:09:27.154Z,-5.40
2022-12-18T09:12:12.957Z,-5.30
2022-12-18T09:14:58.864Z,-5.40
2022-12-18T09:17:44.707Z,-5.30
2022-12-18T09:20:30.957Z,-5.20
2022-12-18T09:23:16.669Z,-5.20
2022-12-18T09:26:02.593Z,-5.10
2022-12-18T09:28:48.583Z,-5.00
2022-12-18T09:31:34.607Z,-4.90
2022-12-18T09:34:22.765Z,-4.80
2022-12-18T09:37:08.283Z,-4.90
2022-12-18T09:39:53.863Z,-4.70
2022-12-18T09:42:39.556Z,-4.70
2022-12-18T09:45:25.621Z,-4.50
2022-12-18T09:48:29.884Z,-4.40
2022-12-18T09:51:24.514Z,-4.40
2022-12-18T09:54:40.407Z,-4.30
2022-12-18T09:57:32.092Z,-4.40
2022-12-18T10:00:21.623Z,-4.20
2022-12-18T10:03:12.482Z,-4.20
2022-12-18T10:06:06.810Z,-4.00
2022-12-18T10:09:02.511Z,-3.80
2022-12-18T10:11:59.440Z,-3.60
2022-12-18T10:15:25.530Z,-3.50
2022-12-18T10:18:22.048Z,-3.40
2022-12-18T10:21:24.810Z,-3.30
2022-12-18T10:24:13.417Z,-3.20
2022-12-18T10:27:19.551Z,-3.00
2022-12-18T10:30:15.462Z,-2.80
2022-12-18T10:33:04.486Z,-2.70
2022-12-18T10:35:53.907Z,-2.60
2022-12-18T10:38:40.113Z,-2.40
2022-12-18T10:41:29.193Z,-2.30
2022-12-18T10:44:22.011Z,-2.40
2022-12-18T10:47:15.141Z,-2.30
2022-12-18T10:50:00.631Z,-2.20
2022-12-18T10:52:58.595Z,-2.00
2022-12-18T10:55:47.860Z,-1.90
2022-12-18T10:58:36.466Z,-1.60
2022-12-18T11:01:22.332Z,-1.40
2022-12-18T11:04:16.752Z,-1.30
2022-12-18T11:07:09.976Z,-1.10
2022-12-18T11:10:03.969Z,-0.90
2022-12-18T11:12:50.209Z,-0.70
2022-12-18T11:15:35.836Z,-0.60
2022-12-18T11:18:35.367Z,-0.60
2022-12-18T11:21:21.149Z,-0.50
2022-12-18T11:24:41.544Z,-0.40
2022-12-18T11:27:29.103Z,-0.50
2022-12-18T11:30:28.475Z,-0.40
2022-12-18T11:33:21.743Z,-0.30
2022-12-18T11:36:10.314Z,-0.10
2022-12-18T11:39:00.445Z,-0.10
2022-12-18T11:42:13.124Z,-0.10
2022-12-18T11:45:13.673Z,0.00
2022-12-18T11:48:08.052Z,0.10
2022-12-18T11:50:57.493Z,0.40
2022-12-18T11:53:42.946Z,0.60
2022-12-18T11:56:36.606Z,0.90
2022-12-18T11:59:31.448Z,1.20
2022-12-18T12:02:55.035Z,1.50
2022-12-18T12:05:58.336Z,2.00
2022-12-18T12:08:50.110Z,2.40
2022-12-18T12:11:56.116Z,2.50
2022-12-18T12:15:13.652Z,2.70
2022-12-18T12:18:13.598Z,2.90
2022-12-18T12:21:29.532Z,2.70
2022-12-18T12:24:42.945Z,2.40
2022-12-18T12:28:05.688Z,2.40
2022-12-18T12:30:52.344Z,2.30
2022-12-18T12:34:10.199Z,2.20
2022-12-18T12:37:05.375Z,2.30
2022-12-18T12:39:52.953Z,2.30
2022-12-18T12:43:08.778Z,2.30
2022-12-18T12:46:09.610Z,2.20
2022-12-18T12:49:03.526Z,2.10
2022-12-18T12:52:08.743Z,2.00
2022-12-18T12:54:55.161Z,1.90
2022-12-18T12:57:56.166Z,1.90
2022-12-18T13:01:24.197Z,1.90
2022-12-18T13:04:39.184Z,1.90
2022-12-18T13:07:48.778Z,1.70
2022-12-18T13:10:37.679Z,1.50
2022-12-18T13:13:24.489Z,1.40
2022-12-18T13:16:11.569Z,1.30
2022-12-18T13:18:59.708Z,1.10
2022-12-18T13:21:55.216Z,1.00
2022-12-18T13:24:40.628Z,0.80
2022-12-18T13:27:41.569Z,0.70
2022-12-18T13:30:33.590Z,0.60
2022-12-18T13:33:24.772Z,0.50
2022-12-18T13:36:13.693Z,0.40
2022-12-18T13:39:30.058Z,0.40
2022-12-18T13:42:38.066Z,0.30
2022-12-18T13:45:41.154Z,0.30
2022-12-18T13:48:28.722Z,0.30
2022-12-18T13:51:19.342Z,0.30
2022-12-18T13:54:26.137Z,0.30
2022-12-18T13:57:32.092Z,0.20
2022-12-18T14:00:21.153Z,0.20
2022-12-18T14:03:25.040Z,0.20
2022-12-18T14:06:13.411Z,0.10
2022-12-18T14:09:00.813Z,0.10
2022-12-18T14:11:51.274Z,0.00
2022-12-18T14:14:37.893Z,-0.10
2022-12-18T14:17:24.209Z,-0.10
2022-12-18T14:20:16.328Z,-0.10
2022-12-18T14:23:02.070Z,-0.20
2022-12-18T14:25:48.106Z,-0.20
2022-12-18T14:28:33.751Z,-0.30
2022-12-18T14:31:21.399Z,-0.30
2022-12-18T14:34:16.895Z,-0.30
2022-12-18T14:37:03.009Z,-0.30
2022-12-18T14:40:02.139Z,-0.30
2022-12-18T14:42:50.562Z,-0.30
2022-12-18T14:45:43.782Z,-0.50
2022-12-18T14:48:43.492Z,-0.50
2022-12-18T14:51:31.715Z,-0.60
2022-12-18T14:54:19.878Z,-0.60
2022-12-18T14:57:17.101Z,-0.70
2022-12-18T15:00:17.556Z,-0.80
2022-12-18T15:03:08.232Z,-0.80
2022-12-18T15:05:54.024Z,-0.80
2022-12-18T15:08:39.796Z,-0.90
2022-12-18T15:11:36.863Z,-0.90
2022-12-18T15:14:35.838Z,-1.00
2022-12-18T15:17:23.944Z,-1.00
2022-12-18T15:20:12.098Z,-1.10
2022-12-18T15:22:57.456Z,-1.20
2022-12-18T15:25:43.069Z,-1.20
2022-12-18T15:28:58.395Z,-1.20
2022-12-18T15:31:44.123Z,-1.20
2022-12-18T15:34:30.462Z,-1.20
2022-12-18T15:37:17.243Z,-1.20
2022-12-18T15:40:03.244Z,-1.20
2022-12-18T15:43:08.160Z,-1.20
2022-12-18T15:45:53.760Z,-1.30
2022-12-18T15:48:44.542Z,-1.30
2022-12-18T15:51:35.909Z,-1.30
2022-12-18T15:54:40.949Z,-1.40
2022-12-18T15:57:26.550Z,-1.30
2022-12-18T16:00:13.779Z,-1.30
2022-12-18T16:03:00.163Z,-1.30
2022-12-18T16:05:45.748Z,-1.30
2022-12-18T16:08:31.709Z,-1.30
2022-12-18T16:11:38.903Z,-1.20
2022-12-18T16:14:28.205Z,-1.20
2022-12-18T16:17:15.593Z,-1.30
2022-12-18T16:20:01.368Z,-1.30
2022-12-18T16:22:47.782Z,-1.30
2022-12-18T16:25:34.134Z,-1.20
2022-12-18T16:28:20.190Z,-1.30
2022-12-18T16:31:06.078Z,-1.20
2022-12-18T16:34:11.464Z,-1.20
2022-12-18T16:37:04.801Z,-1.20
2022-12-18T16:39:51.269Z,-1.20
2022-12-18T16:42:38.027Z,-1.20
2022-12-18T16:45:23.318Z,-1.20
2022-12-18T16:48:11.995Z,-1.20
2022-12-18T16:51:05.617Z,-1.20
2022-12-18T16:53:51.357Z,-1.30
2022-12-18T16:56:36.835Z,-1.30
2022-12-18T16:59:22.930Z,-1.30
2022-12-18T17:02:23.707Z,-1.20
2022-12-18T17:05:09.821Z,-1.20
2022-12-18T17:07:57.510Z,-1.10
2022-12-18T17:10:42.938Z,-1.10
2022-12-18T17:13:28.675Z,-1.10
2022-12-18T17:16:14.554Z,-1.20
2022-12-18T17:19:00.093Z,-1.10
2022-12-18T17:21:48.893Z,-1.10
2022-12-18T17:24:35.362Z,-1.10
2022-12-18T17:27:21.356Z,-1.10
2022-12-18T17:30:07.869Z,-1.20
2022-12-18T17:32:53.358Z,-1.10
2022-12-18T17:35:38.801Z,-1.10
2022-12-18T17:38:24.457Z,-1.10
2022-12-18T17:41:11.649Z,-1.10
2022-12-18T17:44:03.622Z,-1.10
2022-12-18T17:46:49.613Z,-1.10
2022-12-18T17:49:35.129Z,-1.10
2022-12-18T17:52:20.733Z,-1.20
2022-12-18T17:55:07.002Z,-1.20
2022-12-18T17:57:52.561Z,-1.20
2022-12-18T18:00:40.892Z,-1.20
2022-12-18T18:03:26.683Z,-1.20
2022-12-18T18:06:12.633Z,-1.20
2022-12-18T18:08:58.711Z,-1.20
2022-12-18T18:12:06.026Z,-1.10
2022-12-18T18:14:51.763Z,-1.20
2022-12-18T18:17:37.255Z,-1.10
2022-12-18T18:20:23.046Z,-1.10
2022-12-18T18:23:08.988Z,-1.10
2022-12-18T18:25:54.866Z,-1.10
2022-12-18T18:28:41.456Z,-1.00
2022-12-18T18:31:28.945Z,-1.20
2022-12-18T18:34:20.175Z,-1.10
2022-12-18T18:37:05.987Z,-1.20
2022-12-18T18:39:51.748Z,-1.10
2022-12-18T18:42:37.323Z,-1.10
2022-12-18T18:45:22.937Z,-1.10
2022-12-18T18:48:08.543Z,-1.00
2022-12-18T18:50:58.857Z,-1.00
2022-12-18T18:53:46.068Z,-0.90
2022-12-18T18:59:38.162Z,-0.90
2022-12-18T19:02:24.195Z,-0.90
2022-12-18T19:05:11.379Z,-0.90
2022-12-18T19:07:57.195Z,-0.90
2022-12-18T19:10:43.005Z,-0.90
2022-12-18T19:13:31.948Z,-0.90
2022-12-18T19:16:18.144Z,-0.90
2022-12-18T19:19:04.240Z,-0.90
2022-12-18T19:21:50.130Z,-0.90
2022-12-18T19:24:36.039Z,-0.90
2022-12-18T19:27:21.938Z,-0.80
2022-12-18T19:30:08.390Z,-0.80
2022-12-18T19:32:54.191Z,-0.80
2022-12-18T19:35:40.151Z,-0.80
2022-12-18T19:38:26.289Z,-0.70
2022-12-18T19:41:13.651Z,-0.70
2022-12-18T19:44:02.398Z,-0.70
2022-12-18T19:46:54.219Z,-0.70
2022-12-18T19:49:40.333Z,-0.60
2022-12-18T19:52:25.858Z,-0.60
2022-12-18T19:55:11.483Z,-0.60
2022-12-18T19:57:58.002Z,-0.50
2022-12-18T20:00:43.268Z,-0.60
2022-12-18T20:03:32.560Z,-0.60
2022-12-18T20:06:25.669Z,-0.50
2022-12-18T20:09:11.584Z,-0.40
2022-12-18T20:11:57.068Z,-0.40
2022-12-18T20:14:43.051Z,-0.40
2022-12-18T20:17:28.767Z,-0.50
2022-12-18T20:20:15.403Z,-0.40
2022-12-18T20:23:01.112Z,-0.40
2022-12-18T20:25:46.590Z,-0.40
2022-12-18T20:28:32.048Z,-0.40
2022-12-18T20:31:17.695Z,-0.50
2022-12-18T20:34:05.037Z,-0.50
2022-12-18T20:36:51.779Z,-0.60
2022-12-18T20:39:38.393Z,-0.60
2022-12-18T20:42:25.387Z,-0.60
2022-12-18T20:45:11.407Z,-0.60
2022-12-18T20:47:57.242Z,-0.70
2022-12-18T20:50:43.465Z,-0.70
2022-12-18T20:53:29.705Z,-0.70
2022-12-18T20:56:20.843Z,-0.60
2022-12-18T20:59:07.521Z,-0.60
2022-12-18T21:01:53.208Z,-0.50
2022-12-18T21:04:39.002Z,-0.50
2022-12-18T21:07:24.717Z,-0.50
2022-12-18T21:10:10.402Z,-0.50
2022-12-18T21:13:04.606Z,-0.50
2022-12-18T21:15:54.470Z,-0.40
2022-12-18T21:18:40.632Z,-0.70
2022-12-18T21:21:26.851Z,-0.70
2022-12-18T21:24:13.018Z,-0.50
2022-12-18T21:26:58.527Z,-0.40
2022-12-18T21:29:44.261Z,-0.30
2022-12-18T21:32:33.463Z,-0.20
2022-12-18T21:35:20.560Z,-0.20
2022-12-18T21:38:07.713Z,-0.10
2022-12-18T21:40:53.230Z,0.00
2022-12-18T21:44:00.468Z,0.00
2022-12-18T21:46:54.848Z,0.00
2022-12-18T21:49:42.375Z,0.00
2022-12-18T21:52:31.872Z,0.10
2022-12-18T21:55:18.460Z,0.20
2022-12-18T21:58:03.993Z,0.10
2022-12-18T22:00:50.158Z,0.20
2022-12-18T22:03:35.709Z,0.20
2022-12-18T22:06:22.401Z,0.20
2022-12-18T22:09:09.232Z,0.30
2022-12-18T22:11:54.706Z,0.30
2022-12-18T22:14:40.380Z,0.30
2022-12-18T22:17:26.262Z,0.30
2022-12-18T22:20:13.706Z,0.30
2022-12-18T22:22:59.967Z,0.30
2022-12-18T22:25:51.503Z,0.30
2022-12-18T22:28:55.524Z,0.30
2022-12-18T22:31:41.143Z,0.30
2022-12-18T22:34:26.671Z,0.30
2022-12-18T22:37:12.553Z,0.30
2022-12-18T22:39:58.058Z,0.40
2022-12-18T22:42:43.574Z,0.40
2022-12-18T22:45:29.031Z,0.40
2022-12-18T22:48:14.887Z,0.50
2022-12-18T22:51:03.182Z,0.50
2022-12-18T22:53:49.156Z,0.30
2022-12-18T22:56:35.198Z,0.40
2022-12-18T22:59:22.774Z,0.50
2022-12-18T23:02:08.691Z,0.50
2022-12-18T23:04:54.152Z,0.50
2022-12-18T23:07:39.888Z,0.50
2022-12-18T23:10:25.615Z,0.60
2022-12-18T23:13:11.307Z,0.50
2022-12-18T23:15:56.919Z,0.60
2022-12-18T23:18:42.984Z,0.50
2022-12-18T23:21:28.452Z,0.60
2022-12-18T23:24:15.199Z,0.60
2022-12-18T23:27:01.596Z,0.40
2022-12-18T23:29:50.193Z,0.50
2022-12-18T23:32:37.669Z,0.70
2022-12-18T23:35:23.329Z,0.70
2022-12-18T23:38:08.872Z,0.80
2022-12-18T23:40:55.698Z,0.70
2022-12-18T23:43:42.937Z,0.80
2022-12-18T23:46:32.489Z,0.70
2022-12-18T23:49:18.449Z,0.70
2022-12-18T23:52:04.530Z,0.70
2022-12-18T23:54:49.979Z,0.70
2022-12-18T23:57:35.624Z,0.70
